Horn, Austria
Current Conditions -  °F | °C
As of 6:50 AM on Thursday 29 Jan 2015 (Local Time) from LOXT Reporting Station
Broken Clouds Broken Clouds  
Wind Chill: 32°   Ceiling: 3300
Heat Index: 32°   Visibility: 6mi
Dew Point: 32°   Wind: 1mph
Humidity: 100%   Direction: 70°ENE
Pressure: 29.53"   Gusts: NA
Location:  48.67°N, 15.65°E
Report Text: LOXT 290550Z 07001KT 9000 BKN033SC BKN042SC 00/M00 Q1000 RMK OVC
Loading
Personal Weather Stations






























Interactive Weather Map New forecast layout! Learn more

10-Day Weather Forecast

Advertisements
Track Severe Weather on mobile